Grant City, Missouri
Current Conditions -  °F | °C
As of 5:53 PM on Tuesday 25 Nov 2014 (Local Time) from KLWD Reporting Station
Clear Clear  
Wind Chill: -4°   Ceiling: Unl
Heat Index: -1°   Visibility: 10mi
Dew Point: -9°   Wind: 7mph
Humidity: 54%   Direction: 170°S
Pressure: 30.05"   Gusts: NA
Location:  40.49°N, 94.41°W
Report Text: KLWD 252353Z AUTO 17006KT 10SM CLR M01/M09 A3005 RMK AO2 SLP192 T10061089 10028 21006 56007
Loading
Personal Weather Stations






























Interactive Weather Map New forecast layout! Learn more

10-Day Weather Forecast

Advertisements
Track Severe Weather on mobile